Time;durP1;ratioP1;P1;durP2;ratioP2;P2;SDS_P1;SDS_P2;PMS_P1;PMS_P2;Temp;Humidity;BMP_temperature;BMP_pressure;BME280_temperature;BME280_humidity;BME280_pressure;Samples;Min_cycle;Max_cycle;Signal;HPM_P1;HPM_P2
2022/05/22 00:00:10;;;;;;;8.40;4.80;;;;;;;;;;5135851;27;20818;-69
2022/05/22 00:02:39;;;;;;;10.33;4.10;;;;;;;;;;5135481;27;20475;-70
2022/05/22 00:05:07;;;;;;;9.47;4.83;;;;;;;;;;5135425;27;20438;-68
2022/05/22 00:07:35;;;;;;;10.13;4.50;;;;;;;;;;5135502;27;20450;-69
2022/05/22 00:10:02;;;;;;;10.53;4.70;;;;;;;;;;5135416;27;20438;-68
2022/05/22 00:12:29;;;;;;;10.13;4.60;;;;;;;;;;5135210;27;20454;-69
2022/05/22 00:14:57;;;;;;;6.47;4.67;;;;;;;;;;5135287;27;20440;-68
2022/05/22 00:17:24;;;;;;;9.00;4.90;;;;;;;;;;5135201;27;20441;-69
2022/05/22 00:19:52;;;;;;;14.00;5.03;;;;;;;;;;5135104;27;20434;-68
2022/05/22 00:22:19;;;;;;;10.90;4.43;;;;;;;;;;5133862;27;20476;-69
2022/05/22 00:24:47;;;;;;;9.03;4.77;;;;;;;;;;5134817;27;20445;-68
2022/05/22 00:27:15;;;;;;;9.30;4.27;;;;;;;;;;5134820;27;20438;-68
2022/05/22 00:29:42;;;;;;;11.30;4.87;;;;;;;;;;5135086;27;20487;-69
2022/05/22 00:32:10;;;;;;;14.23;4.87;;;;;;;;;;5134624;27;20446;-68
2022/05/22 00:34:37;;;;;;;9.73;4.90;;;;;;;;;;5134681;27;20446;-68
2022/05/22 00:37:06;;;;;;;11.33;5.40;;;;;;;;;;5135016;27;20445;-69
2022/05/22 00:39:34;;;;;;;6.93;5.07;;;;;;;;;;5134603;27;20448;-69
2022/05/22 00:42:01;;;;;;;10.80;5.30;;;;;;;;;;5134281;27;20577;-69
2022/05/22 00:44:28;;;;;;;8.30;4.97;;;;;;;;;;5134624;27;21005;-69
2022/05/22 00:46:56;;;;;;;8.20;5.13;;;;;;;;;;5134417;27;20442;-69
2022/05/22 00:49:27;;;;;;;12.40;5.93;;;;;;;;;;5135216;27;20438;-69
2022/05/22 00:51:57;;;;;;;10.37;5.60;;;;;;;;;;5134959;27;20442;-69
2022/05/22 00:54:28;;;;;;;13.83;6.47;;;;;;;;;;5134423;27;20438;-69
2022/05/22 00:56:57;;;;;;;5.60;4.83;;;;;;;;;;5134399;27;20429;-69
2022/05/22 00:59:26;;;;;;;7.27;5.00;;;;;;;;;;5134680;27;20430;-69
2022/05/22 01:01:55;;;;;;;6.40;5.23;;;;;;;;;;5134749;27;20505;-69
2022/05/22 01:04:23;;;;;;;8.40;5.80;;;;;;;;;;5134255;28;20529;-69
2022/05/22 01:06:52;;;;;;;10.93;5.77;;;;;;;;;;5134357;28;20434;-69
2022/05/22 01:09:19;;;;;;;10.13;6.27;;;;;;;;;;5134242;28;20540;-69
2022/05/22 01:11:49;;;;;;;7.10;5.20;;;;;;;;;;5134313;28;20471;-69
2022/05/22 01:14:18;;;;;;;11.03;5.23;;;;;;;;;;5134601;28;20895;-69
2022/05/22 01:16:47;;;;;;;9.93;5.80;;;;;;;;;;5134357;28;20805;-69
2022/05/22 01:19:15;;;;;;;8.90;5.60;;;;;;;;;;5134145;28;20446;-68
2022/05/22 01:21:43;;;;;;;11.07;6.33;;;;;;;;;;5134247;28;20478;-68
2022/05/22 01:24:11;;;;;;;7.43;5.60;;;;;;;;;;5134751;28;20441;-69
2022/05/22 01:26:38;;;;;;;11.23;5.47;;;;;;;;;;5134020;28;20441;-69
2022/05/22 01:29:06;;;;;;;11.10;5.93;;;;;;;;;;5134047;28;20434;-68
2022/05/22 01:31:33;;;;;;;13.53;5.87;;;;;;;;;;5133895;28;20905;-69
2022/05/22 01:34:00;;;;;;;7.90;5.67;;;;;;;;;;5136486;27;20946;-68
2022/05/22 01:36:27;;;;;;;8.33;5.60;;;;;;;;;;5137984;27;20442;-68
2022/05/22 01:38:54;;;;;;;13.73;6.77;;;;;;;;;;5138060;27;20511;-69
2022/05/22 01:41:23;;;;;;;12.23;6.13;;;;;;;;;;5137810;27;20499;-68
2022/05/22 01:43:50;;;;;;;7.63;5.87;;;;;;;;;;5138079;27;20492;-68
2022/05/22 01:46:17;;;;;;;9.03;5.73;;;;;;;;;;5137878;27;20801;-69
2022/05/22 01:48:44;;;;;;;8.17;5.90;;;;;;;;;;5137850;27;20429;-69
2022/05/22 01:51:11;;;;;;;9.70;6.30;;;;;;;;;;5137592;27;20444;-68
2022/05/22 01:53:39;;;;;;;10.00;6.73;;;;;;;;;;5138037;27;20473;-68
2022/05/22 01:56:06;;;;;;;9.10;5.90;;;;;;;;;;5137624;27;20448;-68
2022/05/22 01:58:35;;;;;;;8.43;6.53;;;;;;;;;;5138154;27;20426;-68
2022/05/22 02:01:02;;;;;;;10.60;6.40;;;;;;;;;;5137506;27;20473;-68
2022/05/22 02:03:30;;;;;;;9.80;6.00;;;;;;;;;;5137537;27;20437;-68
2022/05/22 02:05:57;;;;;;;7.63;6.20;;;;;;;;;;5137835;27;20444;-69
2022/05/22 02:08:23;;;;;;;9.10;6.60;;;;;;;;;;5137386;27;20965;-69
2022/05/22 02:10:52;;;;;;;14.30;6.57;;;;;;;;;;5137411;27;20438;-69
2022/05/22 02:13:20;;;;;;;8.00;6.93;;;;;;;;;;5137735;27;20786;-69
2022/05/22 02:15:49;;;;;;;9.23;6.77;;;;;;;;;;5137694;27;20528;-69
2022/05/22 02:18:17;;;;;;;15.67;8.73;;;;;;;;;;5137352;27;20948;-69
2022/05/22 02:20:44;;;;;;;9.50;7.47;;;;;;;;;;5137301;27;20438;-69
2022/05/22 02:23:11;;;;;;;12.30;8.68;;;;;;;;;;5137408;27;20817;-69
2022/05/22 02:25:39;;;;;;;10.47;8.80;;;;;;;;;;5137187;27;20196;-70
2022/05/22 02:28:07;;;;;;;15.23;8.73;;;;;;;;;;5137016;27;20438;-70
2022/05/22 02:30:36;;;;;;;12.00;9.47;;;;;;;;;;5137369;27;20443;-69
2022/05/22 02:33:05;;;;;;;11.57;8.23;;;;;;;;;;5137309;27;20788;-69
2022/05/22 02:35:33;;;;;;;12.27;7.80;;;;;;;;;;5137591;27;20800;-69
2022/05/22 02:38:00;;;;;;;11.97;8.70;;;;;;;;;;5136836;27;20442;-69
2022/05/22 02:40:28;;;;;;;11.30;8.60;;;;;;;;;;5136893;27;20449;-69
2022/05/22 02:42:56;;;;;;;9.00;8.10;;;;;;;;;;5136402;27;20494;-69
2022/05/22 02:45:24;;;;;;;16.73;9.77;;;;;;;;;;5136257;27;20545;-69
2022/05/22 02:47:52;;;;;;;14.48;9.48;;;;;;;;;;5136992;27;20199;-69
2022/05/22 02:50:22;;;;;;;17.30;9.87;;;;;;;;;;5136716;27;20680;-69
2022/05/22 02:52:49;;;;;;;10.83;8.70;;;;;;;;;;5137220;27;20476;-69
2022/05/22 02:55:17;;;;;;;14.40;9.47;;;;;;;;;;5136582;27;20434;-69
2022/05/22 02:57:44;;;;;;;14.43;10.40;;;;;;;;;;5136427;27;20442;-69
2022/05/22 03:00:13;;;;;;;12.57;9.93;;;;;;;;;;5136796;27;20444;-69
2022/05/22 03:02:40;;;;;;;14.10;10.40;;;;;;;;;;5136620;27;20485;-69
2022/05/22 03:05:08;;;;;;;12.60;9.90;;;;;;;;;;5136385;27;20949;-69
2022/05/22 03:07:37;;;;;;;15.50;10.33;;;;;;;;;;5136544;27;20438;-69
2022/05/22 03:10:05;;;;;;;14.27;10.23;;;;;;;;;;5136373;27;20434;-69
2022/05/22 03:12:33;;;;;;;11.53;9.93;;;;;;;;;;5136622;27;20450;-69
2022/05/22 03:15:00;;;;;;;14.83;10.27;;;;;;;;;;5136279;27;20442;-69
2022/05/22 03:17:28;;;;;;;14.47;12.60;;;;;;;;;;5136425;27;20434;-69
2022/05/22 03:19:55;;;;;;;18.43;9.87;;;;;;;;;;5136318;27;20437;-70
2022/05/22 03:22:23;;;;;;;12.38;10.27;;;;;;;;;;5135850;27;20473;-69
2022/05/22 03:24:52;;;;;;;12.13;9.83;;;;;;;;;;5136333;27;20253;-69
2022/05/22 03:27:20;;;;;;;14.13;10.37;;;;;;;;;;5136063;27;20805;-69
2022/05/22 03:29:48;;;;;;;12.65;10.90;;;;;;;;;;5135866;27;20449;-69
2022/05/22 03:32:15;;;;;;;12.63;9.87;;;;;;;;;;5136391;27;20196;-69
2022/05/22 03:34:43;;;;;;;15.20;10.70;;;;;;;;;;5136077;27;20488;-69
2022/05/22 03:37:10;;;;;;;17.30;11.07;;;;;;;;;;5136024;27;20449;-69
2022/05/22 03:39:38;;;;;;;16.40;10.80;;;;;;;;;;5135949;27;20495;-69
2022/05/22 03:42:07;;;;;;;14.50;9.53;;;;;;;;;;5136503;27;20891;-69
2022/05/22 03:44:36;;;;;;;17.03;10.80;;;;;;;;;;5135952;27;20469;-69
2022/05/22 03:47:03;;;;;;;12.97;10.60;;;;;;;;;;5135795;27;20438;-69
2022/05/22 03:49:30;;;;;;;20.40;9.70;;;;;;;;;;5135427;27;20442;-69
2022/05/22 03:51:57;;;;;;;11.88;10.15;;;;;;;;;;5135816;27;20200;-69
2022/05/22 03:54:25;;;;;;;14.07;10.25;;;;;;;;;;5135643;27;20199;-69
2022/05/22 03:56:53;;;;;;;15.37;10.97;;;;;;;;;;5135763;27;20556;-69
2022/05/22 03:59:21;;;;;;;14.52;10.07;;;;;;;;;;5135355;27;20450;-69
2022/05/22 04:01:48;;;;;;;17.05;11.10;;;;;;;;;;5135570;27;20591;-69
2022/05/22 04:04:16;;;;;;;18.67;10.37;;;;;;;;;;5135449;27;20286;-69
2022/05/22 04:06:43;;;;;;;12.35;10.20;;;;;;;;;;5135503;27;20440;-69
2022/05/22 04:09:10;;;;;;;12.13;9.52;;;;;;;;;;5135634;27;20276;-69
2022/05/22 04:11:40;;;;;;;18.60;9.87;;;;;;;;;;5135954;27;20214;-69
2022/05/22 04:14:07;;;;;;;11.35;10.07;;;;;;;;;;5134987;27;20530;-69
2022/05/22 04:16:36;;;;;;;15.25;10.55;;;;;;;;;;5135316;27;20286;-69
2022/05/22 04:19:03;;;;;;;13.73;10.27;;;;;;;;;;5134733;27;20648;-69
2022/05/22 04:21:30;;;;;;;11.73;9.57;;;;;;;;;;5134208;27;20203;-69
2022/05/22 04:26:42;;;;;;;14.03;10.50;;;;;;;;;;5134472;27;20257;-69
2022/05/22 04:29:09;;;;;;;14.83;9.10;;;;;;;;;;5134314;27;20938;-69
2022/05/22 04:31:38;;;;;;;13.30;10.43;;;;;;;;;;5133982;27;20951;-68
2022/05/22 04:34:05;;;;;;;13.43;9.48;;;;;;;;;;5134352;27;20446;-69
2022/05/22 04:36:32;;;;;;;19.23;9.53;;;;;;;;;;5133890;27;20192;-68
2022/05/22 04:38:59;;;;;;;11.43;9.40;;;;;;;;;;5134054;27;20449;-69
2022/05/22 04:41:27;;;;;;;11.40;9.63;;;;;;;;;;5134405;27;20445;-69
2022/05/22 04:43:54;;;;;;;14.30;11.17;;;;;;;;;;5133999;27;21018;-69
2022/05/22 04:46:21;;;;;;;11.50;10.13;;;;;;;;;;5134257;27;20460;-69
2022/05/22 04:48:50;;;;;;;12.57;10.27;;;;;;;;;;5134253;27;20465;-69
2022/05/22 04:51:17;;;;;;;12.67;9.90;;;;;;;;;;5134259;27;20522;-69
2022/05/22 04:53:44;;;;;;;14.60;10.63;;;;;;;;;;5134246;27;20481;-67
2022/05/22 04:56:11;;;;;;;13.27;10.23;;;;;;;;;;5134232;27;20922;-67
2022/05/22 04:58:38;;;;;;;11.27;9.23;;;;;;;;;;5134612;27;20445;-67
2022/05/22 05:01:07;;;;;;;12.10;9.70;;;;;;;;;;5134685;27;20441;-68
2022/05/22 05:03:34;;;;;;;14.10;9.17;;;;;;;;;;5134452;27;20560;-67
2022/05/22 05:06:03;;;;;;;11.23;9.47;;;;;;;;;;5134159;27;20532;-68
2022/05/22 05:08:30;;;;;;;14.67;9.77;;;;;;;;;;5133871;27;20512;-68
2022/05/22 05:10:58;;;;;;;16.00;8.47;;;;;;;;;;5134647;28;20438;-68
2022/05/22 05:13:26;;;;;;;11.20;8.93;;;;;;;;;;5133647;28;20825;-67
2022/05/22 05:15:59;;;;;;;20.80;9.07;;;;;;;;;;5133871;28;20938;-68
2022/05/22 05:18:27;;;;;;;11.80;8.07;;;;;;;;;;5134432;28;20445;-67
2022/05/22 05:20:55;;;;;;;18.17;8.23;;;;;;;;;;5134303;28;20517;-68
2022/05/22 05:23:23;;;;;;;9.83;6.87;;;;;;;;;;5134988;27;20873;-68
2022/05/22 05:25:51;;;;;;;10.90;7.37;;;;;;;;;;5133902;28;20449;-67
2022/05/22 05:28:18;;;;;;;9.33;7.03;;;;;;;;;;5134147;28;20450;-67
2022/05/22 05:30:45;;;;;;;15.13;7.10;;;;;;;;;;5134342;28;20444;-67
2022/05/22 05:33:12;;;;;;;13.17;6.17;;;;;;;;;;5133874;28;20442;-68
2022/05/22 05:35:39;;;;;;;9.37;5.50;;;;;;;;;;5134035;28;20449;-68
2022/05/22 05:38:07;;;;;;;8.40;5.53;;;;;;;;;;5133958;28;21027;-68
2022/05/22 05:40:36;;;;;;;9.70;5.00;;;;;;;;;;5134386;28;20439;-68
2022/05/22 05:43:03;;;;;;;9.00;6.47;;;;;;;;;;5133947;28;20982;-67
2022/05/22 05:45:31;;;;;;;7.30;5.10;;;;;;;;;;5133540;28;20431;-68
2022/05/22 05:47:58;;;;;;;7.93;5.20;;;;;;;;;;5133974;28;20790;-68
2022/05/22 05:50:26;;;;;;;10.47;5.30;;;;;;;;;;5133629;28;20935;-67
2022/05/22 05:52:54;;;;;;;9.23;5.67;;;;;;;;;;5133900;28;20445;-67
2022/05/22 05:55:21;;;;;;;9.00;4.57;;;;;;;;;;5133456;28;20470;-67
2022/05/22 05:57:50;;;;;;;9.80;4.00;;;;;;;;;;5134598;28;20430;-67
2022/05/22 06:00:19;;;;;;;12.60;5.53;;;;;;;;;;5134182;28;20482;-68
2022/05/22 06:02:46;;;;;;;6.73;4.10;;;;;;;;;;5134087;28;20474;-67
2022/05/22 06:05:14;;;;;;;9.50;4.50;;;;;;;;;;5133531;28;20930;-68
2022/05/22 06:07:41;;;;;;;11.60;3.97;;;;;;;;;;5133496;28;20432;-68
2022/05/22 06:10:10;;;;;;;9.07;3.60;;;;;;;;;;5133808;28;20439;-67
2022/05/22 06:12:37;;;;;;;8.43;3.43;;;;;;;;;;5133822;28;20525;-67
2022/05/22 06:15:06;;;;;;;12.63;3.80;;;;;;;;;;5133186;28;20934;-67
2022/05/22 06:17:35;;;;;;;8.23;3.93;;;;;;;;;;5133967;28;20528;-68
2022/05/22 06:20:03;;;;;;;5.63;3.40;;;;;;;;;;5134180;27;20442;-68
2022/05/22 06:22:32;;;;;;;9.90;3.73;;;;;;;;;;5137499;27;20447;-67
2022/05/22 06:24:59;;;;;;;11.23;4.00;;;;;;;;;;5137448;27;20837;-67
2022/05/22 06:27:27;;;;;;;7.17;3.80;;;;;;;;;;5137278;27;20426;-67
2022/05/22 06:29:54;;;;;;;5.80;3.10;;;;;;;;;;5136998;27;21017;-68
2022/05/22 06:32:24;;;;;;;7.00;3.63;;;;;;;;;;5137063;27;20453;-67
2022/05/22 06:34:51;;;;;;;7.30;3.00;;;;;;;;;;5136980;27;20485;-68
2022/05/22 06:37:19;;;;;;;4.90;2.60;;;;;;;;;;5136966;27;20442;-68
2022/05/22 06:39:52;;;;;;;11.20;3.40;;;;;;;;;;5137355;27;20434;-69
2022/05/22 06:42:23;;;;;;;11.10;3.43;;;;;;;;;;5137154;27;20833;-69
2022/05/22 06:44:55;;;;;;;6.60;2.77;;;;;;;;;;5136738;27;20475;-69
2022/05/22 06:47:23;;;;;;;7.63;2.80;;;;;;;;;;5136594;27;20449;-69
2022/05/22 06:49:51;;;;;;;5.83;3.10;;;;;;;;;;5136906;27;20439;-69
2022/05/22 06:52:18;;;;;;;10.00;3.30;;;;;;;;;;5136600;27;20445;-69
2022/05/22 06:54:45;;;;;;;5.07;3.27;;;;;;;;;;5136710;27;20846;-69
2022/05/22 06:57:15;;;;;;;5.20;2.67;;;;;;;;;;5136807;27;20439;-70
2022/05/22 06:59:42;;;;;;;5.73;2.77;;;;;;;;;;5137585;27;20478;-69
2022/05/22 07:02:09;;;;;;;8.30;3.37;;;;;;;;;;5136438;27;20466;-70
2022/05/22 07:04:38;;;;;;;4.90;2.83;;;;;;;;;;5136398;27;21049;-71
2022/05/22 07:07:05;;;;;;;8.63;4.10;;;;;;;;;;5136800;27;20923;-70
2022/05/22 07:09:33;;;;;;;4.60;2.67;;;;;;;;;;5136742;27;20442;-70
2022/05/22 07:12:00;;;;;;;7.27;2.77;;;;;;;;;;5135507;27;20449;-70
2022/05/22 07:14:28;;;;;;;7.13;2.90;;;;;;;;;;5135878;27;20431;-70
2022/05/22 07:16:56;;;;;;;5.00;2.43;;;;;;;;;;5135904;27;20442;-70
2022/05/22 07:19:23;;;;;;;9.40;3.30;;;;;;;;;;5136528;27;20487;-70
2022/05/22 07:21:52;;;;;;;7.00;2.93;;;;;;;;;;5136122;27;20951;-70
2022/05/22 07:24:19;;;;;;;11.40;2.73;;;;;;;;;;5136354;27;20481;-70
2022/05/22 07:26:46;;;;;;;6.30;2.93;;;;;;;;;;5136429;27;20439;-70
2022/05/22 07:29:14;;;;;;;14.30;4.93;;;;;;;;;;5136149;27;20430;-70
2022/05/22 07:31:42;;;;;;;8.57;2.60;;;;;;;;;;5135595;27;20440;-69
2022/05/22 07:34:09;;;;;;;10.60;3.20;;;;;;;;;;5135569;27;20437;-70
2022/05/22 07:36:36;;;;;;;5.13;2.73;;;;;;;;;;5135527;27;20443;-70
2022/05/22 07:39:05;;;;;;;4.87;3.00;;;;;;;;;;5135734;27;20430;-70
2022/05/22 07:41:33;;;;;;;6.50;3.73;;;;;;;;;;5135737;27;20439;-70
2022/05/22 07:44:00;;;;;;;4.17;2.90;;;;;;;;;;5135615;27;20488;-70
2022/05/22 07:46:28;;;;;;;7.03;2.50;;;;;;;;;;5135842;27;20526;-70
2022/05/22 07:48:55;;;;;;;4.80;2.43;;;;;;;;;;5135826;27;20439;-70
2022/05/22 07:51:22;;;;;;;4.33;2.60;;;;;;;;;;5135742;27;20448;-70
2022/05/22 07:53:51;;;;;;;6.20;2.20;;;;;;;;;;5134985;27;20447;-70
2022/05/22 07:56:22;;;;;;;5.37;2.03;;;;;;;;;;5135410;27;20475;-70
2022/05/22 07:58:50;;;;;;;5.00;3.83;;;;;;;;;;5135839;27;20759;-70
2022/05/22 08:01:17;;;;;;;8.00;1.93;;;;;;;;;;5135894;27;20451;-70
2022/05/22 08:03:44;;;;;;;7.70;2.37;;;;;;;;;;5135520;27;20474;-70
2022/05/22 08:06:12;;;;;;;10.33;2.27;;;;;;;;;;5135876;27;20443;-70
2022/05/22 08:08:40;;;;;;;5.63;2.53;;;;;;;;;;5135570;27;20439;-70
2022/05/22 08:11:07;;;;;;;6.50;2.20;;;;;;;;;;5135130;27;20989;-70
2022/05/22 08:13:36;;;;;;;3.53;1.77;;;;;;;;;;5134763;27;20460;-70
2022/05/22 08:16:03;;;;;;;8.70;2.50;;;;;;;;;;5135114;27;20438;-70
2022/05/22 08:18:30;;;;;;;7.87;2.60;;;;;;;;;;5135301;27;20443;-70
2022/05/22 08:20:57;;;;;;;6.30;2.60;;;;;;;;;;5135483;27;20538;-71
2022/05/22 08:23:24;;;;;;;4.90;2.10;;;;;;;;;;5134816;27;21049;-71
2022/05/22 08:25:52;;;;;;;4.80;2.33;;;;;;;;;;5135468;27;20442;-71
2022/05/22 08:28:19;;;;;;;7.23;2.40;;;;;;;;;;5134940;27;20443;-71
2022/05/22 08:30:48;;;;;;;8.50;3.27;;;;;;;;;;5134942;27;20456;-70
2022/05/22 08:33:16;;;;;;;8.83;2.40;;;;;;;;;;5134140;27;20475;-70
2022/05/22 08:35:44;;;;;;;5.60;3.23;;;;;;;;;;5134352;27;20449;-70
2022/05/22 08:38:12;;;;;;;8.40;2.37;;;;;;;;;;5134597;27;20445;-71
2022/05/22 08:40:46;;;;;;;11.70;2.90;;;;;;;;;;5134912;27;20521;-71
2022/05/22 08:43:15;;;;;;;5.03;2.20;;;;;;;;;;5133491;27;20453;-71
2022/05/22 08:45:43;;;;;;;7.07;1.90;;;;;;;;;;5134962;27;20437;-71
2022/05/22 08:48:15;;;;;;;6.20;2.60;;;;;;;;;;5134776;27;20438;-71
2022/05/22 08:50:43;;;;;;;4.43;2.60;;;;;;;;;;5135197;27;20431;-71
2022/05/22 08:53:13;;;;;;;6.73;3.10;;;;;;;;;;5134191;27;20848;-70
2022/05/22 09:01:27;;;;;;;6.13;2.67;;;;;;;;;;5121266;27;20453;-71
2022/05/22 09:03:58;;;;;;;3.60;2.13;;;;;;;;;;5134596;27;20464;-71
2022/05/22 09:06:28;;;;;;;3.50;2.20;;;;;;;;;;5134757;28;20423;-71
2022/05/22 09:08:55;;;;;;;3.67;2.47;;;;;;;;;;5134360;28;20434;-70
2022/05/22 09:11:28;;;;;;;6.27;2.47;;;;;;;;;;5134578;28;20808;-70
2022/05/22 09:13:57;;;;;;;6.37;2.00;;;;;;;;;;5134089;28;20460;-70
2022/05/22 09:16:27;;;;;;;8.53;3.60;;;;;;;;;;5134894;28;20441;-70
2022/05/22 09:18:58;;;;;;;7.90;3.33;;;;;;;;;;5134633;28;20574;-70
2022/05/22 09:21:32;;;;;;;5.23;2.13;;;;;;;;;;5134587;28;20407;-70
2022/05/22 09:24:00;;;;;;;5.20;2.07;;;;;;;;;;5134210;28;20860;-70
2022/05/22 09:26:32;;;;;;;6.00;2.13;;;;;;;;;;5134412;28;20446;-71
2022/05/22 09:29:03;;;;;;;5.53;3.03;;;;;;;;;;5134440;28;20434;-70
2022/05/22 09:31:33;;;;;;;7.20;2.53;;;;;;;;;;5134491;28;20419;-71
2022/05/22 09:34:08;;;;;;;4.60;2.40;;;;;;;;;;5134044;28;20448;-71
2022/05/22 09:36:43;;;;;;;5.73;2.00;;;;;;;;;;5134114;28;20432;-71
2022/05/22 09:39:16;;;;;;;3.97;2.33;;;;;;;;;;5133977;28;20921;-71
2022/05/22 09:41:52;;;;;;;7.03;2.50;;;;;;;;;;5133052;28;20440;-70
2022/05/22 09:44:27;;;;;;;8.07;2.57;;;;;;;;;;5133319;28;20993;-70
2022/05/22 09:47:12;;;;;;;5.03;2.40;;;;;;;;;;5134301;28;20431;-71
2022/05/22 09:49:48;;;;;;;7.07;2.17;;;;;;;;;;5120631;28;20469;-71
2022/05/22 09:52:17;;;;;;;6.97;2.50;;;;;;;;;;5133961;28;20426;-71
2022/05/22 09:54:53;;;;;;;7.87;2.80;;;;;;;;;;5136111;27;20526;-72
2022/05/22 09:57:29;;;;;;;8.27;3.13;;;;;;;;;;5137869;27;20516;-71
2022/05/22 10:00:03;;;;;;;6.97;2.80;;;;;;;;;;5137779;27;20956;-70
2022/05/22 10:02:39;;;;;;;4.00;2.60;;;;;;;;;;5137745;27;20450;-69
2022/05/22 10:05:13;;;;;;;6.00;2.33;;;;;;;;;;5137415;27;20547;-70
2022/05/22 10:07:44;;;;;;;5.60;2.00;;;;;;;;;;5137513;27;20542;-70
2022/05/22 10:10:15;;;;;;;6.00;2.70;;;;;;;;;;5137545;27;20438;-70
2022/05/22 10:12:49;;;;;;;9.10;3.50;;;;;;;;;;5137824;27;20460;-70
2022/05/22 10:15:27;;;;;;;4.43;2.57;;;;;;;;;;5137230;27;20437;-70
2022/05/22 10:18:00;;;;;;;7.20;3.30;;;;;;;;;;5137503;27;20447;-70
2022/05/22 10:20:35;;;;;;;5.63;2.43;;;;;;;;;;5137019;27;20867;-70
2022/05/22 10:23:05;;;;;;;3.97;2.40;;;;;;;;;;5137148;27;20419;-70
2022/05/22 10:25:44;;;;;;;3.50;2.37;;;;;;;;;;5137002;27;20478;-71
2022/05/22 10:28:14;;;;;;;7.30;2.77;;;;;;;;;;5137140;27;20429;-70
2022/05/22 10:30:44;;;;;;;7.80;3.10;;;;;;;;;;5137726;27;20526;-71
2022/05/22 10:33:16;;;;;;;2.70;2.50;;;;;;;;;;5137103;27;20993;-71
2022/05/22 10:35:48;;;;;;;3.23;2.40;;;;;;;;;;5137387;27;20432;-71
2022/05/22 10:38:20;;;;;;;4.93;2.60;;;;;;;;;;5137863;27;20491;-71
2022/05/22 10:43:34;;;;;;;8.30;3.30;;;;;;;;;;5135927;27;20503;-72
2022/05/22 10:46:02;;;;;;;6.63;3.20;;;;;;;;;;5136624;27;20996;-71
2022/05/22 10:48:31;;;;;;;4.63;2.60;;;;;;;;;;5136903;27;20484;-70
2022/05/22 10:51:04;;;;;;;5.20;2.87;;;;;;;;;;5137097;27;20522;-71
2022/05/22 10:53:34;;;;;;;7.53;2.73;;;;;;;;;;5137212;27;20403;-70
2022/05/22 10:56:02;;;;;;;4.93;3.00;;;;;;;;;;5137666;27;20812;-72
2022/05/22 10:58:30;;;;;;;8.83;2.50;;;;;;;;;;5136470;27;20426;-73
2022/05/22 11:00:58;;;;;;;11.07;3.20;;;;;;;;;;5136691;27;20441;-72
2022/05/22 11:03:27;;;;;;;6.33;2.93;;;;;;;;;;5135932;27;20940;-72
2022/05/22 11:05:55;;;;;;;7.03;2.80;;;;;;;;;;5134881;27;20481;-71
2022/05/22 11:08:28;;;;;;;6.13;2.47;;;;;;;;;;5135856;27;20509;-72
2022/05/22 11:10:57;;;;;;;6.00;2.90;;;;;;;;;;5136884;27;20428;-73
2022/05/22 11:13:26;;;;;;;7.90;3.87;;;;;;;;;;5136776;27;20451;-71
2022/05/22 11:15:54;;;;;;;3.80;2.70;;;;;;;;;;5136138;27;20946;-68
2022/05/22 11:18:22;;;;;;;3.00;2.40;;;;;;;;;;5136443;27;20454;-70
2022/05/22 11:20:52;;;;;;;6.57;2.73;;;;;;;;;;5136357;27;20435;-71
2022/05/22 11:23:37;;;;;;;7.23;2.50;;;;;;;;;;5136367;27;20440;-70
2022/05/22 11:26:11;;;;;;;6.93;2.83;;;;;;;;;;5135656;27;20824;-69
2022/05/22 11:28:45;;;;;;;5.63;2.40;;;;;;;;;;5136102;27;20426;-71
2022/05/22 11:31:27;;;;;;;3.57;2.43;;;;;;;;;;5136221;27;20438;-71
2022/05/22 11:34:02;;;;;;;6.20;3.10;;;;;;;;;;5136217;27;20947;-71
2022/05/22 11:36:37;;;;;;;9.93;4.50;;;;;;;;;;5136188;27;20436;-70
2022/05/22 11:39:12;;;;;;;4.20;2.53;;;;;;;;;;5136378;27;20763;-70
2022/05/22 11:41:45;;;;;;;5.33;2.73;;;;;;;;;;5136077;27;20518;-70
2022/05/22 11:44:32;;;;;;;6.43;2.50;;;;;;;;;;5136122;27;20563;-69
2022/05/22 11:47:07;;;;;;;8.30;2.73;;;;;;;;;;5135690;27;20432;-70
2022/05/22 11:49:38;;;;;;;3.53;2.17;;;;;;;;;;5136179;27;20471;-70
2022/05/22 11:52:10;;;;;;;4.47;2.73;;;;;;;;;;5135927;27;20427;-71
2022/05/22 11:54:47;;;;;;;4.97;2.50;;;;;;;;;;5136222;27;20527;-70
2022/05/22 11:57:27;;;;;;;6.03;2.87;;;;;;;;;;5136374;27;20468;-71
2022/05/22 12:00:01;;;;;;;6.67;2.60;;;;;;;;;;5135307;27;20424;-71
2022/05/22 12:02:36;;;;;;;6.17;2.80;;;;;;;;;;5135971;27;20439;-72
2022/05/22 12:05:13;;;;;;;3.80;1.97;;;;;;;;;;5135431;27;20474;-71
2022/05/22 12:07:47;;;;;;;4.73;2.40;;;;;;;;;;5136090;27;20436;-71
2022/05/22 12:10:17;;;;;;;5.63;3.00;;;;;;;;;;5135050;27;20480;-71
2022/05/22 12:12:52;;;;;;;8.47;4.17;;;;;;;;;;5135515;27;20455;-71
2022/05/22 12:15:32;;;;;;;10.77;5.57;;;;;;;;;;5135045;27;20429;-71
2022/05/22 12:18:04;;;;;;;5.57;2.60;;;;;;;;;;5135635;27;20432;-71
2022/05/22 12:20:34;;;;;;;6.80;2.37;;;;;;;;;;5135414;27;20428;-71
2022/05/22 12:23:12;;;;;;;4.90;2.57;;;;;;;;;;5134873;27;20508;-71
2022/05/22 12:25:43;;;;;;;4.83;2.63;;;;;;;;;;5134840;27;20522;-72
2022/05/22 12:28:19;;;;;;;4.83;2.23;;;;;;;;;;5134815;27;20425;-71
2022/05/22 12:30:47;;;;;;;7.90;2.80;;;;;;;;;;5134869;27;20910;-71
2022/05/22 12:33:14;;;;;;;3.70;2.30;;;;;;;;;;5134962;27;20472;-71
2022/05/22 12:35:43;;;;;;;5.17;2.40;;;;;;;;;;5134630;27;20934;-72
2022/05/22 12:38:12;;;;;;;5.50;2.30;;;;;;;;;;5134950;27;20439;-73
2022/05/22 12:40:43;;;;;;;3.50;2.17;;;;;;;;;;5134980;27;20866;-72
2022/05/22 12:43:13;;;;;;;5.23;2.30;;;;;;;;;;5133553;27;20454;-70
2022/05/22 12:45:42;;;;;;;7.37;2.63;;;;;;;;;;5133294;27;21032;-72
2022/05/22 12:48:13;;;;;;;3.93;1.87;;;;;;;;;;5134308;27;20426;-71
2022/05/22 12:50:47;;;;;;;4.10;1.93;;;;;;;;;;5134235;27;20480;-73
2022/05/22 12:53:26;;;;;;;5.90;2.40;;;;;;;;;;5134547;27;20512;-71
2022/05/22 12:55:54;;;;;;;5.13;2.40;;;;;;;;;;5134187;27;20433;-71
2022/05/22 12:58:33;;;;;;;5.93;2.53;;;;;;;;;;5134270;27;20449;-72
2022/05/22 13:01:02;;;;;;;4.23;2.57;;;;;;;;;;5134727;27;20425;-71
2022/05/22 13:03:35;;;;;;;10.70;3.63;;;;;;;;;;5134637;27;20440;-72
2022/05/22 13:06:05;;;;;;;3.90;2.33;;;;;;;;;;5133920;27;20995;-71
2022/05/22 13:08:38;;;;;;;7.43;2.77;;;;;;;;;;5134400;28;20441;-71
2022/05/22 13:11:09;;;;;;;5.93;2.67;;;;;;;;;;5134618;28;20517;-71
2022/05/22 13:13:46;;;;;;;3.40;1.87;;;;;;;;;;5133733;28;20557;-70
2022/05/22 13:16:15;;;;;;;5.57;2.47;;;;;;;;;;5133469;28;20906;-70
2022/05/22 13:18:50;;;;;;;4.83;2.20;;;;;;;;;;5134931;28;20774;-71
2022/05/22 13:21:28;;;;;;;5.30;2.50;;;;;;;;;;5134192;28;20437;-71
2022/05/22 13:24:02;;;;;;;5.30;2.07;;;;;;;;;;5133963;28;20422;-72
2022/05/22 13:26:30;;;;;;;4.17;2.13;;;;;;;;;;5134243;28;20465;-71
2022/05/22 13:29:00;;;;;;;4.23;2.33;;;;;;;;;;5134908;27;20524;-72
2022/05/22 13:31:32;;;;;;;6.80;2.00;;;;;;;;;;5138409;27;20951;-72
2022/05/22 13:34:08;;;;;;;2.70;1.90;;;;;;;;;;5137600;27;20937;-69
2022/05/22 13:36:36;;;;;;;5.30;2.27;;;;;;;;;;5137733;27;20430;-68
2022/05/22 13:39:04;;;;;;;5.37;2.00;;;;;;;;;;5137857;27;20442;-70
2022/05/22 13:41:48;;;;;;;7.10;2.10;;;;;;;;;;5138494;27;20457;-71
2022/05/22 13:44:30;;;;;;;3.33;1.90;;;;;;;;;;5137830;27;20837;-71
2022/05/22 13:47:22;;;;;;;4.43;1.97;;;;;;;;;;5135232;27;20475;-70
2022/05/22 13:52:58;;;;;;;4.17;2.20;;;;;;;;;;5095362;27;20917;-71
2022/05/22 13:55:26;;;;;;;2.57;2.00;;;;;;;;;;5137721;27;20443;-71
2022/05/22 13:57:56;;;;;;;4.63;2.93;;;;;;;;;;5137403;27;20448;-71
2022/05/22 14:00:23;;;;;;;3.80;2.30;;;;;;;;;;5137943;27;20445;-71
2022/05/22 14:02:53;;;;;;;4.43;2.40;;;;;;;;;;5138049;27;20441;-72
2022/05/22 14:05:21;;;;;;;3.77;2.00;;;;;;;;;;5137846;27;20469;-72
2022/05/22 14:07:50;;;;;;;2.40;1.60;;;;;;;;;;5137776;27;20442;-72
2022/05/22 14:10:18;;;;;;;4.60;3.10;;;;;;;;;;5138138;27;20445;-71
2022/05/22 14:12:46;;;;;;;3.23;1.93;;;;;;;;;;5137395;27;20993;-71
2022/05/22 14:15:17;;;;;;;5.83;4.10;;;;;;;;;;5137019;27;20815;-72
2022/05/22 14:17:45;;;;;;;5.63;2.93;;;;;;;;;;5137017;27;20528;-71
2022/05/22 14:20:19;;;;;;;4.30;2.40;;;;;;;;;;5137251;27;20459;-71
2022/05/22 14:22:48;;;;;;;2.07;1.80;;;;;;;;;;5137658;27;20418;-71
2022/05/22 14:25:18;;;;;;;4.93;2.93;;;;;;;;;;5137414;27;20482;-71
2022/05/22 14:27:46;;;;;;;3.80;1.97;;;;;;;;;;5137528;27;20515;-71
2022/05/22 14:30:16;;;;;;;4.60;2.40;;;;;;;;;;5137282;27;20440;-71
2022/05/22 14:32:46;;;;;;;6.37;5.47;;;;;;;;;;5136849;27;20471;-72
2022/05/22 14:35:15;;;;;;;6.13;4.57;;;;;;;;;;5136873;27;20779;-73
2022/05/22 14:37:45;;;;;;;3.70;2.20;;;;;;;;;;5136616;27;20795;-72
2022/05/22 14:40:21;;;;;;;3.57;1.60;;;;;;;;;;5136734;27;20423;-71
2022/05/22 14:42:49;;;;;;;5.10;2.00;;;;;;;;;;5136535;27;20520;-71
2022/05/22 14:45:24;;;;;;;5.83;4.00;;;;;;;;;;5136929;27;20905;-71
2022/05/22 14:47:51;;;;;;;7.00;2.33;;;;;;;;;;5137022;27;20429;-71
2022/05/22 14:50:20;;;;;;;7.90;5.37;;;;;;;;;;5136944;27;20440;-71
2022/05/22 14:52:51;;;;;;;3.60;2.27;;;;;;;;;;5136520;27;20474;-71
2022/05/22 14:55:21;;;;;;;4.47;2.30;;;;;;;;;;5136402;27;20476;-71
2022/05/22 14:57:50;;;;;;;3.93;2.77;;;;;;;;;;5136287;27;20524;-71
2022/05/22 15:00:18;;;;;;;4.50;2.37;;;;;;;;;;5136264;27;20501;-72
2022/05/22 15:02:48;;;;;;;17.33;9.43;;;;;;;;;;5136961;27;20474;-71
2022/05/22 15:05:17;;;;;;;6.43;2.80;;;;;;;;;;5136592;27;20435;-71